Valdez Airport

About
Name: Valdez Airport
Identifier:  VDZ/PAVD
Serves:  Valdez, Alaska
Operator:  State of Alaska DOT&PF - Northern Region
Public/Private:  Public
Local Time:  17. Aug 21:25 AKDT
Description: Valdez Airport, also known as Pioneer Field, is a state-owned public-use airport located three nautical miles east of the central business district of Valdez, a city in the Valdez-Cordova Census Area of the U.S. state of Alaska.
Source: Wikipedia
Location
Runways
Identifier Length (m/ft) Surface
6/24 6,500/6,500 Asphalt
Flights per Day
3 flights
Distance: 201km (125mi)
Punctuality
76% (0 flights per day delayed)
Delay Average: 92 minutes
Current Weather
 20 C (Humidity: 21%)
  9kt (16km/h / 10mph) from 280°
19 knots Gusts

  Scattered clouds at 30,000 feet (9,144 meter)
  16km (10 mi.)
 METAR PAVD 180456Z 28009G19KT 210V320 10SM SCT300 20/M03 A3008 RMK AO2 SLP206 T02001033

Current Flights

Departures
Number Departure To Airline
Arrivals
Number Arrival From Airline

Current Delays

Departures
N/A
Arrivals
N/A

Destinations

Top Destinations
Airport Flights
per week
Seats
per week
  Anchorage (ANC) 7 284 1 40

Airlines & Planes

Top Airlines
Airline Flights
per Day
Seats
per Day
  Era Alaska 1 40
Top Plane Types
Model Flights Seats
Bombardier Dash 8-100 1.1/day 40/day 40.7